createdAt,value
2022-09-17T00:00:22.022Z,100256.84
2022-09-17T00:02:55.722Z,100256.88
2022-09-17T00:05:28.348Z,100256.88
2022-09-17T00:07:57.952Z,100256.88
2022-09-17T00:10:28.190Z,100251.47
2022-09-17T00:12:58.260Z,100261.25
2022-09-17T00:15:27.875Z,100253.34
2022-09-17T00:17:58.592Z,100261.25
2022-09-17T00:20:30.844Z,100263.94
2022-09-17T00:23:00.409Z,100260.53
2022-09-17T00:25:30.005Z,100257.13
2022-09-17T00:27:59.555Z,100260.47
2022-09-17T00:30:29.094Z,100265.91
2022-09-17T00:32:58.652Z,100259.97
2022-09-17T00:35:30.950Z,100263.72
2022-09-17T00:38:00.614Z,100261.28
2022-09-17T00:40:30.359Z,100262.91
2022-09-17T00:42:59.950Z,100255.94
2022-09-17T00:45:30.099Z,100259.38
2022-09-17T00:48:01.549Z,100257.59
2022-09-17T00:50:37.827Z,100253.16
2022-09-17T00:53:09.560Z,100255.56
2022-09-17T00:55:41.735Z,100255.34
2022-09-17T00:58:14.180Z,100259.69
2022-09-17T01:00:46.292Z,100257.22
2022-09-17T01:03:16.297Z,100258.19
2022-09-17T01:05:51.814Z,100268.84
2022-09-17T01:08:28.587Z,100276.75
2022-09-17T01:11:22.888Z,100272.63
2022-09-17T01:13:59.929Z,100272.94
2022-09-17T01:16:34.950Z,100268.53
2022-09-17T01:19:23.111Z,100269.47
2022-09-17T01:22:03.963Z,100273.78
2022-09-17T01:24:50.041Z,100271.16
2022-09-17T01:27:51.631Z,100267.72
2022-09-17T01:30:43.829Z,100275.72
2022-09-17T01:33:20.168Z,100274.09
2022-09-17T01:35:54.081Z,100280.22
2022-09-17T01:38:29.250Z,100282.00
2022-09-17T01:41:02.386Z,100273.16
2022-09-17T01:43:37.049Z,100276.09
2022-09-17T01:46:12.220Z,100279.91
2022-09-17T01:48:50.281Z,100278.03
2022-09-17T01:51:23.025Z,100280.88
2022-09-17T01:53:57.975Z,100280.09
2022-09-17T01:56:31.009Z,100278.31
2022-09-17T01:59:04.929Z,100280.25
2022-09-17T02:01:35.269Z,100279.25
2022-09-17T02:04:11.354Z,100273.91
2022-09-17T02:06:44.447Z,100292.91
2022-09-17T02:09:18.260Z,100290.06
2022-09-17T02:11:52.060Z,100291.78
2022-09-17T02:14:24.002Z,100281.34
2022-09-17T02:16:56.323Z,100284.63
2022-09-17T02:19:31.559Z,100282.84
2022-09-17T02:22:04.898Z,100290.06
2022-09-17T02:24:38.390Z,100286.44
2022-09-17T02:27:10.926Z,100293.47
2022-09-17T02:29:42.893Z,100281.91
2022-09-17T02:32:13.078Z,100286.34
2022-09-17T02:34:45.332Z,100295.28
2022-09-17T02:37:15.165Z,100289.28
2022-09-17T02:39:45.297Z,100284.00
2022-09-17T02:42:24.964Z,100288.28
2022-09-17T02:45:02.481Z,100288.22
2022-09-17T02:47:41.076Z,100293.47
2022-09-17T02:50:22.688Z,100302.44
2022-09-17T02:53:00.835Z,100297.25
2022-09-17T02:55:35.807Z,100292.75
2022-09-17T02:58:12.664Z,100297.25
2022-09-17T03:00:43.098Z,100301.75
2022-09-17T03:03:15.527Z,100306.09
2022-09-17T03:05:47.811Z,100300.25
2022-09-17T03:08:20.211Z,100301.13
2022-09-17T03:10:50.344Z,100285.44
2022-09-17T03:13:20.285Z,100306.47
2022-09-17T03:15:49.972Z,100306.75
2022-09-17T03:18:19.597Z,100303.19
2022-09-17T03:20:51.886Z,100302.28
2022-09-17T03:23:21.573Z,100316.38
2022-09-17T03:25:52.074Z,100309.25
2022-09-17T03:28:21.638Z,100308.25
2022-09-17T03:30:51.267Z,100302.03
2022-09-17T03:33:20.890Z,100301.56
2022-09-17T03:35:53.100Z,100300.00
2022-09-17T03:38:22.702Z,100299.16
2022-09-17T03:41:00.621Z,100296.53
2022-09-17T03:43:30.380Z,100308.81
2022-09-17T03:46:00.432Z,100313.13
2022-09-17T03:48:30.398Z,100314.03
2022-09-17T03:51:02.681Z,100321.78
2022-09-17T03:53:32.345Z,100324.44
2022-09-17T03:56:02.211Z,100320.78
2022-09-17T03:58:32.636Z,100312.88
2022-09-17T04:01:03.486Z,100314.59
2022-09-17T04:03:33.516Z,100315.47
2022-09-17T04:06:05.956Z,100315.47
2022-09-17T04:08:36.672Z,100311.09
2022-09-17T04:11:07.824Z,100312.75
2022-09-17T04:13:37.648Z,100312.75
2022-09-17T04:16:07.453Z,100320.66
2022-09-17T04:18:37.319Z,100323.38
2022-09-17T04:21:09.815Z,100318.03
2022-09-17T04:23:39.371Z,100325.78
2022-09-17T04:26:09.044Z,100321.59
2022-09-17T04:28:38.611Z,100323.38
2022-09-17T04:31:08.367Z,100318.16
2022-09-17T04:33:38.019Z,100320.88
2022-09-17T04:36:10.306Z,100324.50
2022-09-17T04:38:39.923Z,100324.59
2022-09-17T04:41:10.011Z,100328.94
2022-09-17T04:43:39.671Z,100328.78
2022-09-17T04:46:09.516Z,100332.50
2022-09-17T04:48:39.274Z,100335.13
2022-09-17T04:51:11.551Z,100327.22
2022-09-17T04:53:41.206Z,100320.09
2022-09-17T04:56:10.818Z,100331.41
2022-09-17T04:58:40.506Z,100337.53
2022-09-17T05:01:11.097Z,100333.28
2022-09-17T05:03:40.762Z,100332.25
2022-09-17T05:06:13.165Z,100334.81
2022-09-17T05:08:42.762Z,100340.94
2022-09-17T05:11:12.295Z,100332.13
2022-09-17T05:13:42.090Z,100336.47
2022-09-17T05:16:12.081Z,100340.06
2022-09-17T05:18:41.731Z,100347.97
2022-09-17T05:21:14.287Z,100350.59
2022-09-17T05:23:43.851Z,100357.56
2022-09-17T05:26:13.656Z,100359.28
2022-09-17T05:28:43.363Z,100363.72
2022-09-17T05:31:13.609Z,100369.91
2022-09-17T05:33:43.340Z,100367.28
2022-09-17T05:36:15.519Z,100373.47
2022-09-17T05:38:45.147Z,100370.84
2022-09-17T05:41:14.892Z,100371.75
2022-09-17T05:43:46.275Z,100367.31
2022-09-17T05:46:15.957Z,100372.47
2022-09-17T05:48:46.346Z,100365.34
2022-09-17T05:51:18.996Z,100361.84
2022-09-17T05:53:48.619Z,100373.31
2022-09-17T05:56:19.465Z,100371.38
2022-09-17T05:58:49.190Z,100360.78
2022-09-17T06:01:19.053Z,100365.97
2022-09-17T06:18:17.156Z,100406.16
2022-09-17T06:20:46.784Z,100408.09
2022-09-17T06:23:16.484Z,100407.31
2022-09-17T06:25:46.044Z,100404.38
2022-09-17T06:28:15.606Z,100409.03
2022-09-17T06:30:45.167Z,100415.09
2022-09-17T06:33:17.488Z,100424.69
2022-09-17T06:35:47.319Z,100425.63
2022-09-17T06:38:16.935Z,100434.47
2022-09-17T06:40:46.750Z,100429.28
2022-09-17T06:43:16.294Z,100425.88
2022-09-17T06:45:46.033Z,100423.41
2022-09-17T06:48:18.556Z,100428.69
2022-09-17T06:50:48.509Z,100432.03
2022-09-17T06:53:19.998Z,100436.41
2022-09-17T06:55:49.703Z,100435.59
2022-09-17T06:58:19.387Z,100430.13
2022-09-17T07:00:49.100Z,100424.44
2022-09-17T07:03:23.368Z,100429.41
2022-09-17T07:05:53.120Z,100431.25
2022-09-17T07:08:22.664Z,100438.81
2022-09-17T07:10:52.500Z,100441.25
2022-09-17T07:13:22.087Z,100446.69
2022-09-17T07:15:56.160Z,100432.31
2022-09-17T07:18:28.683Z,100432.97
2022-09-17T07:20:59.134Z,100425.69
2022-09-17T07:23:29.889Z,100432.69
2022-09-17T07:26:00.931Z,100432.69
2022-09-17T07:28:31.531Z,100422.13
2022-09-17T07:31:01.132Z,100421.84
2022-09-17T07:33:33.326Z,100421.84
2022-09-17T07:36:04.952Z,100420.84
2022-09-17T07:38:35.190Z,100427.50
2022-09-17T07:41:06.093Z,100426.97
2022-09-17T07:43:37.583Z,100430.94
2022-09-17T07:46:08.805Z,100427.22
2022-09-17T07:48:41.041Z,100422.66
2022-09-17T07:51:10.660Z,100423.31
2022-09-17T07:53:40.307Z,100424.16
2022-09-17T07:56:12.007Z,100427.66
2022-09-17T07:58:42.267Z,100418.78
2022-09-17T08:01:13.563Z,100431.84
2022-09-17T08:03:46.934Z,100422.03
2022-09-17T08:06:18.498Z,100428.53
2022-09-17T08:08:48.546Z,100434.41
2022-09-17T08:11:38.184Z,100434.38
2022-09-17T08:14:09.132Z,100436.53
2022-09-17T08:16:38.791Z,100438.94
2022-09-17T08:19:11.685Z,100429.00
2022-09-17T08:21:41.500Z,100431.34
2022-09-17T08:24:11.498Z,100432.56
2022-09-17T08:26:41.485Z,100437.28
2022-09-17T08:29:11.351Z,100430.66
2022-09-17T08:31:41.096Z,100422.31
2022-09-17T08:34:13.956Z,100426.09
2022-09-17T08:36:43.627Z,100431.84
2022-09-17T08:39:13.266Z,100425.09
2022-09-17T08:41:55.201Z,100435.88
2022-09-17T08:44:28.083Z,100442.72
2022-09-17T08:47:06.305Z,100433.09
2022-09-17T08:49:39.950Z,100430.34
2022-09-17T08:52:33.082Z,100433.16
2022-09-17T08:55:11.676Z,100431.38
2022-09-17T08:57:48.845Z,100438.03
2022-09-17T09:00:20.423Z,100430.34
2022-09-17T12:58:14.913Z,100401.81
2022-09-17T13:00:49.201Z,100394.69
2022-09-17T13:03:23.261Z,100398.22
2022-09-17T13:06:13.617Z,100390.72
2022-09-17T13:09:21.683Z,100393.88
2022-09-17T13:12:04.716Z,100380.00
2022-09-17T13:14:51.996Z,100384.50
2022-09-17T13:17:28.541Z,100382.38
2022-09-17T13:20:04.530Z,100379.16
2022-09-17T13:22:35.251Z,100370.16
2022-09-17T13:25:07.234Z,100366.91
2022-09-17T13:27:37.708Z,100365.44
2022-09-17T13:30:11.952Z,100376.81
2022-09-17T13:32:55.633Z,100376.19
2022-09-17T13:35:49.338Z,100366.59
2022-09-17T13:38:23.121Z,100358.88
2022-09-17T13:40:54.234Z,100358.16
2022-09-17T13:43:27.841Z,100357.75
2022-09-17T13:46:15.655Z,100357.19
2022-09-17T13:48:51.982Z,100358.16
2022-09-17T13:51:52.272Z,100364.00
2022-09-17T13:54:24.386Z,100378.91
2022-09-17T13:57:07.941Z,100454.97
2022-09-17T13:59:39.142Z,100459.75
2022-09-17T14:02:39.401Z,100442.06
2022-09-17T14:05:24.128Z,100437.28
2022-09-17T14:07:55.544Z,100429.44
2022-09-17T14:10:32.002Z,100426.72
2022-09-17T14:13:18.932Z,100429.59
2022-09-17T14:16:01.763Z,100416.88
2022-09-17T14:18:40.912Z,100424.50
2022-09-17T14:21:15.286Z,100425.09
2022-09-17T14:23:45.566Z,100427.84
2022-09-17T14:26:16.952Z,100426.22
2022-09-17T14:28:47.635Z,100424.13
2022-09-17T14:31:19.804Z,100421.13
2022-09-17T14:33:51.710Z,100410.13
2022-09-17T14:36:21.439Z,100409.38
2022-09-17T14:38:51.053Z,100406.09
2022-09-17T14:41:21.853Z,100404.66
2022-09-17T14:43:52.362Z,100410.94
2022-09-17T14:46:24.491Z,100410.09
2022-09-17T14:48:56.829Z,100413.00
2022-09-17T14:51:31.774Z,100410.59
2022-09-17T14:54:26.326Z,100400.19
2022-09-17T14:57:03.722Z,100409.72
2022-09-17T14:59:43.769Z,100397.28
2022-09-17T15:02:32.585Z,100396.28
2022-09-17T15:05:06.070Z,100393.22
2022-09-17T15:07:35.716Z,100401.81
2022-09-17T15:10:15.646Z,100399.69
2022-09-17T15:12:46.003Z,100396.38
2022-09-17T15:15:21.064Z,100392.44
2022-09-17T15:17:51.285Z,100393.91
2022-09-17T15:20:25.689Z,100385.88
2022-09-17T15:22:59.050Z,100391.00
2022-09-17T15:25:32.397Z,100386.66
2022-09-17T15:28:07.959Z,100389.22
2022-09-17T15:30:37.915Z,100397.16
2022-09-17T15:33:12.541Z,100387.50
2022-09-17T15:35:45.003Z,100381.38
2022-09-17T15:38:28.123Z,100390.31
2022-09-17T15:40:58.280Z,100384.25
2022-09-17T15:43:30.255Z,100396.22
2022-09-17T15:46:01.528Z,100392.88
2022-09-17T15:48:39.639Z,100390.22
2022-09-17T15:51:26.255Z,100441.00
2022-09-17T15:53:57.391Z,100435.97
2022-09-17T15:56:28.951Z,100428.88
2022-09-17T15:59:03.204Z,100428.50
2022-09-17T16:01:56.495Z,100426.50
2022-09-17T16:04:31.178Z,100420.75
2022-09-17T16:07:32.777Z,100425.59
2022-09-17T16:10:02.419Z,100435.78
2022-09-17T16:12:32.023Z,100439.56
2022-09-17T16:15:03.169Z,100440.81
2022-09-17T16:17:43.246Z,100450.06
2022-09-17T16:20:18.001Z,100459.28
2022-09-17T16:22:50.763Z,100457.97
2022-09-17T16:25:21.136Z,100476.66
2022-09-17T16:27:53.786Z,100470.78
2022-09-17T16:30:24.775Z,100451.66
2022-09-17T16:32:54.789Z,100452.75
2022-09-17T16:35:25.825Z,100438.75
2022-09-17T16:37:59.080Z,100450.19
2022-09-17T16:40:31.195Z,100454.47
2022-09-17T16:43:03.303Z,100450.88
2022-09-17T16:45:33.519Z,100449.94
2022-09-17T16:48:03.274Z,100462.28
2022-09-17T16:50:33.088Z,100465.03
2022-09-17T16:53:06.437Z,100460.50
2022-09-17T16:55:36.016Z,100455.16
2022-09-17T16:58:05.599Z,100463.06
2022-09-17T17:00:36.685Z,100459.44
2022-09-17T17:03:07.599Z,100461.16
2022-09-17T17:05:39.590Z,100457.78
2022-09-17T17:08:14.525Z,100453.44
2022-09-17T17:10:44.350Z,100464.16
2022-09-17T17:13:14.013Z,100460.78
2022-09-17T17:15:44.072Z,100469.88
2022-09-17T17:18:13.730Z,100472.59
2022-09-17T17:20:43.343Z,100475.31
2022-09-17T17:23:15.579Z,100469.31
2022-09-17T17:25:45.217Z,100474.72
2022-09-17T17:28:15.001Z,100467.91
2022-09-17T17:30:44.797Z,100468.97
2022-09-17T17:33:14.373Z,100468.19
2022-09-17T17:35:45.490Z,100473.53
2022-09-17T17:38:19.904Z,100478.97
2022-09-17T17:40:49.594Z,100471.09
2022-09-17T17:43:19.199Z,100478.41
2022-09-17T17:45:48.890Z,100475.69
2022-09-17T17:48:18.479Z,100474.06
2022-09-17T17:50:48.355Z,100475.19
2022-09-17T17:53:20.731Z,100469.91
2022-09-17T17:55:59.570Z,100463.00
2022-09-17T17:58:29.548Z,100468.06
2022-09-17T18:00:59.202Z,100472.47
2022-09-17T18:03:29.111Z,100482.34
2022-09-17T18:06:00.578Z,100478.75
2022-09-17T18:08:32.760Z,100472.75
2022-09-17T18:11:04.084Z,100480.97
2022-09-17T18:13:34.348Z,100485.31
2022-09-17T18:16:05.076Z,100490.44
2022-09-17T18:18:42.123Z,100487.66
2022-09-17T18:21:15.836Z,100485.91
2022-09-17T18:23:48.270Z,100486.75
2022-09-17T18:26:19.108Z,100484.13
2022-09-17T18:28:48.851Z,100486.09
2022-09-17T18:31:23.741Z,100499.28
2022-09-17T18:33:55.727Z,100494.94
2022-09-17T18:36:25.360Z,100493.31
2022-09-17T18:39:24.135Z,100503.78
2022-09-17T18:41:51.541Z,100505.63
2022-09-17T18:44:22.029Z,100504.72
2022-09-17T18:46:52.121Z,100506.44
2022-09-17T18:49:21.951Z,100514.34
2022-09-17T18:51:51.650Z,100510.84
2022-09-17T18:54:24.020Z,100510.03
2022-09-17T18:56:53.609Z,100515.31
2022-09-17T18:59:23.128Z,100525.09
2022-09-17T19:01:52.818Z,100519.88
2022-09-17T19:04:23.026Z,100529.59
2022-09-17T19:06:52.606Z,100535.72
2022-09-17T19:09:24.723Z,100525.09
2022-09-17T19:11:54.371Z,100515.38
2022-09-17T19:14:23.955Z,100519.03
2022-09-17T19:16:55.240Z,100529.50
2022-09-17T19:19:24.816Z,100531.09
2022-09-17T19:21:54.561Z,100527.66
2022-09-17T19:24:26.770Z,100521.44
2022-09-17T19:26:56.327Z,100536.38
2022-09-17T19:29:26.004Z,100535.53
2022-09-17T19:31:56.218Z,100546.13
2022-09-17T19:34:25.934Z,100540.00
2022-09-17T19:36:55.883Z,100535.53
2022-09-17T19:39:28.229Z,100537.22
2022-09-17T19:41:58.070Z,100542.56
2022-09-17T19:44:31.153Z,100531.97
2022-09-17T19:47:01.079Z,100528.47
2022-09-17T19:49:31.469Z,100534.59
2022-09-17T19:52:01.700Z,100523.22
2022-09-17T19:54:34.084Z,100531.09
2022-09-17T19:57:04.218Z,100543.38
2022-09-17T19:59:34.020Z,100537.22
2022-09-17T20:02:03.700Z,100547.63
2022-09-17T20:04:34.301Z,100543.22
2022-09-17T20:07:04.616Z,100547.63
2022-09-17T20:09:36.970Z,100550.19
2022-09-17T20:12:07.223Z,100555.28
2022-09-17T20:14:36.991Z,100555.22
2022-09-17T20:17:06.834Z,100564.84
2022-09-17T20:19:36.360Z,100558.63
2022-09-17T20:22:06.117Z,100561.34
2022-09-17T20:24:38.306Z,100550.72
2022-09-17T20:27:08.091Z,100550.78
2022-09-17T20:29:37.706Z,100545.44
2022-09-17T20:32:07.450Z,100548.22
2022-09-17T20:34:37.029Z,100548.34
2022-09-17T20:37:13.032Z,100544.84
2022-09-17T20:39:45.502Z,100539.56
2022-09-17T20:42:15.071Z,100536.22
2022-09-17T20:44:44.597Z,100538.09
2022-09-17T20:47:14.212Z,100540.81
2022-09-17T20:49:43.803Z,100544.34
2022-09-17T20:52:14.470Z,100546.19
2022-09-17T20:54:48.979Z,100549.75
2022-09-17T20:57:18.551Z,100545.25
2022-09-17T20:59:53.423Z,100546.13
2022-09-17T21:02:25.433Z,100547.28
2022-09-17T21:04:55.202Z,100552.97
2022-09-17T21:07:24.928Z,100556.44
2022-09-17T21:09:57.076Z,100554.72
2022-09-17T21:12:27.730Z,100559.28
2022-09-17T21:14:57.307Z,100559.44
2022-09-17T21:17:27.163Z,100550.69
2022-09-17T21:19:57.811Z,100558.91
2022-09-17T21:22:27.315Z,100556.31
2022-09-17T21:24:59.485Z,100558.94
2022-09-17T21:27:29.015Z,100558.09
2022-09-17T21:29:58.556Z,100558.09
2022-09-17T21:32:28.133Z,100559.88
2022-09-17T21:34:57.728Z,100562.50
2022-09-17T21:37:27.440Z,100557.22
2022-09-17T21:39:59.682Z,100559.81
2022-09-17T21:42:29.254Z,100555.44
2022-09-17T21:44:58.784Z,100556.38
2022-09-17T21:47:28.328Z,100551.97
2022-09-17T21:49:57.888Z,100558.09
2022-09-17T21:52:28.197Z,100563.31
2022-09-17T21:55:00.363Z,100570.34
2022-09-17T21:57:30.996Z,100570.34
2022-09-17T22:00:00.522Z,100560.69
2022-09-17T22:02:32.521Z,100568.53
2022-09-17T22:05:02.439Z,100563.25
2022-09-17T22:07:32.498Z,100564.97
2022-09-17T22:10:04.680Z,100578.16
2022-09-17T22:12:34.235Z,100572.00
2022-09-17T22:15:04.328Z,100576.28
2022-09-17T22:17:33.888Z,100578.94
2022-09-17T22:20:03.659Z,100571.78
2022-09-17T22:22:33.270Z,100572.72
2022-09-17T22:25:05.480Z,100564.81
2022-09-17T22:27:35.133Z,100577.03
2022-09-17T22:30:04.697Z,100567.34
2022-09-17T22:32:34.294Z,100569.13
2022-09-17T22:35:03.937Z,100572.53
2022-09-17T22:37:33.481Z,100569.97
2022-09-17T22:40:06.072Z,100578.66
2022-09-17T22:42:35.803Z,100569.13
2022-09-17T22:45:07.843Z,100572.63
2022-09-17T22:47:37.460Z,100571.78
2022-09-17T22:50:08.010Z,100567.44
2022-09-17T22:52:37.840Z,100571.00
2022-09-17T22:55:10.583Z,100578.00
2022-09-17T22:57:40.180Z,100580.56
2022-09-17T23:00:12.749Z,100579.72
2022-09-17T23:02:42.383Z,100574.50
2022-09-17T23:05:12.130Z,100566.53
2022-09-17T23:07:41.748Z,100576.22
2022-09-17T23:10:14.004Z,100566.53
2022-09-17T23:12:43.660Z,100560.41
2022-09-17T23:15:13.321Z,100556.03
2022-09-17T23:17:42.878Z,100563.97
2022-09-17T23:20:12.972Z,100557.84
2022-09-17T23:22:42.629Z,100553.41
2022-09-17T23:25:14.984Z,100549.91
2022-09-17T23:27:44.609Z,100552.56
2022-09-17T23:30:14.843Z,100549.91
2022-09-17T23:32:44.472Z,100555.13
2022-09-17T23:35:14.337Z,100555.00
2022-09-17T23:37:43.929Z,100553.16
2022-09-17T23:40:16.316Z,100550.66
2022-09-17T23:42:46.160Z,100548.13
2022-09-17T23:45:15.891Z,100556.03
2022-09-17T23:47:45.709Z,100544.72
2022-09-17T23:50:15.410Z,100551.44
2022-09-17T23:52:44.961Z,100551.69
2022-09-17T23:55:17.117Z,100549.91
2022-09-17T23:57:46.765Z,100556.03
